Archival Weather

Snohomish County (Paine Fld)

Everett, Washington (KPAE)

Report from: Saturday, November 11, 2023 6:53 PM PST
Current time: Monday, June 17, 2024 12:17 AM PDT

Current weather – Weather history – Daily summaries
Weather forecast

Temperature9.4°C (48.9°F)
Wind chill7.0°C (44.6°F)
Dew point6.1°C (43.0°F)
Winds 9 kts (4.6 m/s, 10.4 mph) South-Southwest (200°)
Visibility10 mi. (16.1 km)
Clouds Few clouds 1,700 ft. (518 m)
Altimeter30.04 in.Hg (1017 mB)
Relative humidity80 %
Density altitude-671 ft. (-205 m)
Sea-level pressure101.7 kPa (1017 mB, 30.04 in.Hg)
Remarks Automated weather observing station with precipitation discriminator
Pressure rising
Flight conditions Visual Meteorological Conditions
Raw dataKPAE 120253Z 20009KT 10SM FEW017 09/06 A3004 RMK AO2 SLP173 T00940061 52031
An error has occurred. This application may no longer respond until reloaded. Reload 🗙